SWR317K LSZH-LIBR
Flight info
| Callsign | SWR317K |
|---|---|
| Flight time | N/A |
| Altitude | 37000 |
| Route | DEGES Z2 XEBIX L607 ELMEM N606 GIRIS DCT NAKIT DCT UMSON DCT RILIM DCT AIOSA L862 ENOXA |
| Aircraft | A321/M-SDE3FGHIRWY/LB1 |
Departure
| Time | N/A |
|---|---|
| Airport | Zürich Airport (LSZH) |
Arrival
| Time | 2026-05-07 22:01 |
|---|---|
| Airport | Brindisi Airport (LIBR) |
| Time | Latitude | Longitude | Altitude | Speed | Heading |
|---|---|---|---|---|---|
| 2026-05-07 21:08 | 45.43677 | 12.37499 | 37049 ft | 483 kts | 138° |
| 2026-05-07 21:09 | 45.39130 | 12.44542 | 37055 ft | 484 kts | 138° |
| 2026-05-07 21:09 | 45.34562 | 12.51533 | 37059 ft | 484 kts | 139° |
| 2026-05-07 21:10 | 45.29981 | 12.58474 | 37060 ft | 484 kts | 139° |
| 2026-05-07 21:10 | 45.25365 | 12.65431 | 37060 ft | 484 kts | 140° |
| 2026-05-07 21:11 | 45.20760 | 12.72348 | 37059 ft | 484 kts | 140° |
| 2026-05-07 21:11 | 45.13836 | 12.82709 | 37060 ft | 484 kts | 140° |
| 2026-05-07 21:12 | 45.09195 | 12.89635 | 37059 ft | 484 kts | 140° |
| 2026-05-07 21:12 | 45.04572 | 12.96515 | 37057 ft | 484 kts | 140° |
| 2026-05-07 21:13 | 44.99958 | 13.03365 | 37052 ft | 484 kts | 140° |
| 2026-05-07 21:13 | 44.95297 | 13.10269 | 37049 ft | 485 kts | 140° |
| 2026-05-07 21:14 | 44.90658 | 13.17120 | 37050 ft | 485 kts | 140° |
| 2026-05-07 21:14 | 44.85983 | 13.24008 | 37054 ft | 485 kts | 140° |
| 2026-05-07 21:15 | 44.81296 | 13.30898 | 37058 ft | 485 kts | 140° |
| 2026-05-07 21:15 | 44.76607 | 13.37772 | 37068 ft | 486 kts | 140° |
| 2026-05-07 21:16 | 44.71922 | 13.44625 | 37079 ft | 485 kts | 140° |
| 2026-05-07 21:16 | 44.67271 | 13.51411 | 37083 ft | 486 kts | 140° |
| 2026-05-07 21:17 | 44.62563 | 13.58260 | 37086 ft | 486 kts | 140° |
| 2026-05-07 21:17 | 44.57921 | 13.65002 | 37085 ft | 486 kts | 140° |
| 2026-05-07 21:18 | 44.53191 | 13.71850 | 37086 ft | 486 kts | 141° |
| 2026-05-07 21:18 | 44.48495 | 13.78630 | 37086 ft | 486 kts | 141° |
| 2026-05-07 21:19 | 44.43794 | 13.85406 | 37086 ft | 486 kts | 141° |
| 2026-05-07 21:19 | 44.39098 | 13.92153 | 37086 ft | 486 kts | 141° |
| 2026-05-07 21:20 | 44.34370 | 13.98933 | 37086 ft | 486 kts | 141° |
| 2026-05-07 21:20 | 44.29649 | 14.05681 | 37086 ft | 488 kts | 141° |
| 2026-05-07 21:21 | 44.24919 | 14.12430 | 37086 ft | 487 kts | 141° |
| 2026-05-07 21:21 | 44.20186 | 14.19169 | 37087 ft | 488 kts | 141° |
| 2026-05-07 21:22 | 44.15442 | 14.25904 | 37086 ft | 488 kts | 141° |
| 2026-05-07 21:22 | 44.10694 | 14.32629 | 37086 ft | 488 kts | 141° |
| 2026-05-07 21:23 | 44.05915 | 14.39382 | 37085 ft | 488 kts | 141° |
| 2026-05-07 21:23 | 44.01183 | 14.46055 | 37086 ft | 487 kts | 141° |
| 2026-05-07 21:24 | 43.96417 | 14.52755 | 37086 ft | 488 kts | 141° |
| 2026-05-07 21:24 | 43.91653 | 14.59429 | 37087 ft | 489 kts | 141° |
| 2026-05-07 21:25 | 43.86866 | 14.66127 | 37077 ft | 489 kts | 142° |
| 2026-05-07 21:25 | 43.82044 | 14.72859 | 37068 ft | 489 kts | 142° |
| 2026-05-07 21:26 | 43.77258 | 14.79520 | 37064 ft | 490 kts | 142° |
| 2026-05-07 21:26 | 43.72474 | 14.86167 | 37062 ft | 490 kts | 142° |
| 2026-05-07 21:27 | 43.67671 | 14.92821 | 37062 ft | 490 kts | 142° |
| 2026-05-07 21:27 | 43.62876 | 14.99451 | 37065 ft | 490 kts | 142° |
| 2026-05-07 21:28 | 43.58039 | 15.06124 | 37070 ft | 490 kts | 142° |
| 2026-05-07 21:28 | 43.53246 | 15.12719 | 37078 ft | 490 kts | 142° |
| 2026-05-07 21:29 | 43.48402 | 15.19366 | 37083 ft | 491 kts | 142° |
| 2026-05-07 21:29 | 43.43576 | 15.25973 | 37086 ft | 491 kts | 142° |
| 2026-05-07 21:30 | 43.38762 | 15.32548 | 37086 ft | 491 kts | 142° |
| 2026-05-07 21:30 | 43.33904 | 15.39173 | 37086 ft | 491 kts | 142° |
| 2026-05-07 21:31 | 43.29067 | 15.45749 | 37086 ft | 491 kts | 142° |
| 2026-05-07 21:31 | 43.24223 | 15.52320 | 37086 ft | 492 kts | 142° |
| 2026-05-07 21:32 | 43.19351 | 15.58910 | 37086 ft | 493 kts | 142° |
| 2026-05-07 21:32 | 43.14485 | 15.65479 | 37085 ft | 493 kts | 143° |
| 2026-05-07 21:33 | 43.09595 | 15.72067 | 37079 ft | 493 kts | 143° |
| 2026-05-07 21:33 | 43.04718 | 15.78616 | 37073 ft | 494 kts | 143° |
| 2026-05-07 21:34 | 42.99837 | 15.85159 | 37066 ft | 494 kts | 143° |
| 2026-05-07 21:34 | 42.94934 | 15.91717 | 37064 ft | 495 kts | 143° |
| 2026-05-07 21:35 | 42.89986 | 15.98315 | 37067 ft | 497 kts | 143° |
| 2026-05-07 21:35 | 42.85021 | 16.04922 | 37072 ft | 498 kts | 143° |
| 2026-05-07 21:36 | 42.80072 | 16.11495 | 37078 ft | 499 kts | 143° |
| 2026-05-07 21:36 | 42.75088 | 16.18099 | 37083 ft | 499 kts | 143° |
| 2026-05-07 21:37 | 42.70119 | 16.24664 | 37085 ft | 500 kts | 143° |
| 2026-05-07 21:37 | 42.65116 | 16.31259 | 37083 ft | 500 kts | 143° |
| 2026-05-07 21:38 | 42.60111 | 16.37841 | 37079 ft | 502 kts | 143° |
| 2026-05-07 21:38 | 42.55084 | 16.44436 | 36729 ft | 502 kts | 143° |
| 2026-05-07 21:39 | 42.52574 | 16.47724 | 36479 ft | 502 kts | 143° |
| 2026-05-07 21:39 | 42.50050 | 16.51026 | 36227 ft | 501 kts | 143° |
| 2026-05-07 21:39 | 42.47519 | 16.54332 | 35975 ft | 501 kts | 143° |
| 2026-05-07 21:39 | 42.45031 | 16.57578 | 35727 ft | 501 kts | 143° |
| 2026-05-07 21:40 | 42.42505 | 16.60871 | 35476 ft | 501 kts | 143° |
| 2026-05-07 21:40 | 42.40007 | 16.64124 | 35215 ft | 501 kts | 143° |
| 2026-05-07 21:40 | 42.37494 | 16.67394 | 34832 ft | 501 kts | 143° |
| 2026-05-07 21:40 | 42.34993 | 16.70644 | 34448 ft | 500 kts | 143° |
| 2026-05-07 21:41 | 42.32497 | 16.73881 | 34049 ft | 501 kts | 143° |
| 2026-05-07 21:41 | 42.30003 | 16.77111 | 33564 ft | 498 kts | 143° |
| 2026-05-07 21:41 | 42.27519 | 16.80328 | 32803 ft | 498 kts | 143° |
| 2026-05-07 21:41 | 42.25027 | 16.83548 | 31918 ft | 500 kts | 143° |
| 2026-05-07 21:42 | 42.22524 | 16.86777 | 31029 ft | 500 kts | 142° |
| 2026-05-07 21:42 | 42.20000 | 16.90031 | 30286 ft | 499 kts | 142° |
| 2026-05-07 21:42 | 42.17508 | 16.93243 | 29756 ft | 499 kts | 142° |
| 2026-05-07 21:42 | 42.15023 | 16.96441 | 29248 ft | 500 kts | 142° |
| 2026-05-07 21:43 | 42.12497 | 16.99688 | 28736 ft | 501 kts | 141° |
| 2026-05-07 21:43 | 42.09980 | 17.02921 | 28239 ft | 501 kts | 141° |
| 2026-05-07 21:43 | 42.07483 | 17.06125 | 27741 ft | 501 kts | 141° |
| 2026-05-07 21:43 | 42.04971 | 17.09343 | 27240 ft | 501 kts | 141° |
| 2026-05-07 21:44 | 42.02432 | 17.12592 | 26741 ft | 501 kts | 141° |
| 2026-05-07 21:44 | 41.99927 | 17.15793 | 26251 ft | 502 kts | 141° |
| 2026-05-07 21:44 | 41.97407 | 17.19008 | 25712 ft | 500 kts | 140° |
| 2026-05-07 21:44 | 41.94896 | 17.22169 | 24945 ft | 498 kts | 142° |
| 2026-05-07 21:45 | 41.92135 | 17.24940 | 24279 ft | 495 kts | 152° |
| 2026-05-07 21:45 | 41.89086 | 17.27109 | 23672 ft | 491 kts | 159° |
| 2026-05-07 21:45 | 41.85986 | 17.28959 | 23096 ft | 488 kts | 160° |
| 2026-05-07 21:45 | 41.82893 | 17.30744 | 22528 ft | 483 kts | 160° |
| 2026-05-07 21:46 | 41.79827 | 17.32503 | 21964 ft | 479 kts | 160° |
| 2026-05-07 21:46 | 41.76801 | 17.34247 | 21403 ft | 474 kts | 160° |
| 2026-05-07 21:46 | 41.73807 | 17.35977 | 20843 ft | 470 kts | 160° |
| 2026-05-07 21:46 | 41.70858 | 17.37686 | 20289 ft | 465 kts | 160° |
| 2026-05-07 21:47 | 41.67887 | 17.39408 | 19746 ft | 461 kts | 160° |
| 2026-05-07 21:47 | 41.64974 | 17.41098 | 19198 ft | 456 kts | 160° |
| 2026-05-07 21:47 | 41.62101 | 17.42764 | 18646 ft | 452 kts | 160° |
| 2026-05-07 21:47 | 41.59250 | 17.44415 | 18089 ft | 448 kts | 160° |
| 2026-05-07 21:48 | 41.56381 | 17.46075 | 17524 ft | 443 kts | 160° |
| 2026-05-07 21:48 | 41.53575 | 17.47696 | 16960 ft | 439 kts | 160° |
| 2026-05-07 21:48 | 41.50794 | 17.49300 | 16394 ft | 436 kts | 160° |
| 2026-05-07 21:48 | 41.48044 | 17.50885 | 15830 ft | 432 kts | 159° |
| 2026-05-07 21:49 | 41.45305 | 17.52463 | 15266 ft | 428 kts | 159° |
| 2026-05-07 21:49 | 41.42593 | 17.54023 | 14706 ft | 424 kts | 159° |
| 2026-05-07 21:49 | 41.39908 | 17.55567 | 14147 ft | 421 kts | 159° |
| 2026-05-07 21:49 | 41.37237 | 17.57102 | 13589 ft | 417 kts | 159° |
| 2026-05-07 21:50 | 41.34608 | 17.58612 | 13036 ft | 413 kts | 159° |
| 2026-05-07 21:50 | 41.31993 | 17.60113 | 12486 ft | 409 kts | 159° |
| 2026-05-07 21:50 | 41.29405 | 17.61596 | 11936 ft | 406 kts | 159° |
| 2026-05-07 21:50 | 41.26834 | 17.63069 | 11391 ft | 402 kts | 158° |
| 2026-05-07 21:51 | 41.24258 | 17.64542 | 10844 ft | 398 kts | 158° |
| 2026-05-07 21:51 | 41.21731 | 17.65985 | 10394 ft | 393 kts | 158° |
| 2026-05-07 21:51 | 41.19233 | 17.67396 | 10235 ft | 392 kts | 159° |
| 2026-05-07 21:51 | 41.16691 | 17.68750 | 10056 ft | 392 kts | 160° |
| 2026-05-07 21:52 | 41.14166 | 17.70065 | 9705 ft | 389 kts | 160° |
| 2026-05-07 21:52 | 41.11660 | 17.71369 | 9255 ft | 386 kts | 159° |
| 2026-05-07 21:52 | 41.09194 | 17.72653 | 8767 ft | 377 kts | 159° |
| 2026-05-07 21:52 | 41.06796 | 17.73909 | 8224 ft | 367 kts | 159° |
| 2026-05-07 21:53 | 41.04456 | 17.75131 | 7703 ft | 357 kts | 159° |
| 2026-05-07 21:53 | 41.02174 | 17.76322 | 7203 ft | 348 kts | 159° |
| 2026-05-07 21:53 | 40.99977 | 17.77466 | 6716 ft | 340 kts | 160° |
| 2026-05-07 21:53 | 40.97787 | 17.78604 | 6238 ft | 331 kts | 159° |
| 2026-05-07 21:54 | 40.95681 | 17.79697 | 5894 ft | 320 kts | 159° |
| 2026-05-07 21:54 | 40.93702 | 17.80735 | 5826 ft | 301 kts | 158° |
| 2026-05-07 21:54 | 40.91785 | 17.81727 | 5736 ft | 284 kts | 161° |
| 2026-05-07 21:54 | 40.89877 | 17.82097 | 5398 ft | 277 kts | 185° |
| 2026-05-07 21:55 | 40.88078 | 17.81307 | 5051 ft | 275 kts | 211° |
| 2026-05-07 21:55 | 40.86713 | 17.79579 | 4732 ft | 275 kts | 232° |
| 2026-05-07 21:55 | 40.85811 | 17.77374 | 4432 ft | 272 kts | 241° |
| 2026-05-07 21:55 | 40.84860 | 17.75249 | 4102 ft | 263 kts | 222° |
| 2026-05-07 21:56 | 40.83377 | 17.74166 | 4004 ft | 237 kts | 183° |
| 2026-05-07 21:56 | 40.81865 | 17.74464 | 4024 ft | 212 kts | 155° |
| 2026-05-07 21:56 | 40.80715 | 17.75623 | 4028 ft | 208 kts | 134° |
| 2026-05-07 21:56 | 40.79785 | 17.77016 | 3735 ft | 203 kts | 132° |
| 2026-05-07 21:57 | 40.78808 | 17.78395 | 3042 ft | 211 kts | 135° |
| 2026-05-07 21:57 | 40.77810 | 17.79808 | 2618 ft | 211 kts | 135° |
| 2026-05-07 21:57 | 40.76791 | 17.81164 | 2496 ft | 199 kts | 136° |
| 2026-05-07 21:57 | 40.75818 | 17.82421 | 2268 ft | 196 kts | 137° |
| 2026-05-07 21:58 | 40.74842 | 17.83647 | 2008 ft | 194 kts | 137° |
| 2026-05-07 21:58 | 40.73889 | 17.84829 | 1822 ft | 176 kts | 137° |
| 2026-05-07 21:58 | 40.73045 | 17.85869 | 1578 ft | 160 kts | 137° |
| 2026-05-07 21:58 | 40.72262 | 17.86838 | 1339 ft | 148 kts | 137° |
| 2026-05-07 21:59 | 40.71540 | 17.87722 | 1131 ft | 137 kts | 137° |
| 2026-05-07 21:59 | 40.70854 | 17.88560 | 959 ft | 134 kts | 137° |
| 2026-05-07 21:59 | 40.70166 | 17.89402 | 787 ft | 134 kts | 137° |
| 2026-05-07 21:59 | 40.69484 | 17.90239 | 613 ft | 133 kts | 137° |
| 2026-05-07 22:00 | 40.68810 | 17.91064 | 438 ft | 133 kts | 137° |
| 2026-05-07 22:00 | 40.68129 | 17.91896 | 262 ft | 133 kts | 137° |
| 2026-05-07 22:00 | 40.67453 | 17.92707 | 62 ft | 132 kts | 137° |
| 2026-05-07 22:00 | 40.66835 | 17.93470 | 29 ft | 93 kts | 138° |
| 2026-05-07 22:01 | 40.66534 | 17.93839 | 28 ft | 47 kts | 137° |
| 2026-05-07 22:01 | 40.66314 | 17.94106 | 26 ft | 31 kts | 137° |
| 2026-05-07 22:01 | 40.66205 | 17.94239 | 26 ft | 19 kts | 135° |
| 2026-05-07 22:01 | 40.66207 | 17.94334 | 24 ft | 13 kts | 49° |
| 2026-05-07 22:02 | 40.66253 | 17.94402 | 23 ft | 0 kts | 47° |
| 2026-05-07 22:03 | 40.66265 | 17.94423 | 23 ft | 6 kts | 69° |
| 2026-05-07 22:03 | 40.66224 | 17.94510 | 25 ft | 14 kts | 139° |
| 2026-05-07 22:03 | 40.66136 | 17.94617 | 25 ft | 21 kts | 136° |
| 2026-05-07 22:04 | 40.66023 | 17.94697 | 25 ft | 12 kts | 225° |
| 2026-05-07 22:04 | 40.65938 | 17.94546 | 29 ft | 25 kts | 233° |
| 2026-05-07 22:04 | 40.65834 | 17.94371 | 32 ft | 23 kts | 232° |
| 2026-05-07 22:04 | 40.65805 | 17.94297 | 33 ft | 0 kts | 309° |
| 2026-05-07 22:05 | 40.65807 | 17.94295 | 33 ft | 0 kts | 309° |
| 2026-05-07 22:05 | 40.65810 | 17.94290 | 33 ft | 0 kts | 309° |
| 2026-05-07 22:05 | 40.65812 | 17.94286 | 33 ft | 0 kts | 297° |
| 2026-05-07 22:05 | 40.65808 | 17.94278 | 33 ft | 1 kts | 221° |
| 2026-05-07 22:06 | 40.65783 | 17.94271 | 34 ft | 4 kts | 194° |
| 2026-05-07 22:06 | 40.65761 | 17.94246 | 35 ft | 3 kts | 234° |
| 2026-05-07 22:06 | 40.65747 | 17.94220 | 35 ft | 3 kts | 236° |
| 2026-05-07 22:06 | 40.65731 | 17.94187 | 35 ft | 4 kts | 236° |
| 2026-05-07 22:07 | 40.65708 | 17.94153 | 35 ft | 7 kts | 221° |
| 2026-05-07 22:07 | 40.65671 | 17.94094 | 36 ft | 9 kts | 238° |
| 2026-05-07 22:07 | 40.65609 | 17.93980 | 39 ft | 17 kts | 232° |
| 2026-05-07 22:07 | 40.65541 | 17.93860 | 41 ft | 15 kts | 232° |
| 2026-05-07 22:08 | 40.65489 | 17.93757 | 43 ft | 11 kts | 277° |
| 2026-05-07 22:08 | 40.65537 | 17.93685 | 44 ft | 5 kts | 327° |
| 2026-05-07 22:08 | 40.65539 | 17.93683 | 44 ft | 0 kts | 327° |
| 2026-05-07 22:08 | 40.65541 | 17.93681 | 44 ft | 0 kts | 329° |
| 2026-05-07 22:09 | 40.65548 | 17.93679 | 44 ft | 2 kts | 347° |
| 2026-05-07 22:09 | 40.65569 | 17.93680 | 43 ft | 0 kts | 5° |
| 2026-05-07 22:09 | 40.65571 | 17.93681 | 43 ft | 0 kts | 6° |